createdAt,value
2022-08-24T00:01:10.813Z,39.20
2022-08-24T00:06:23.758Z,39.90
2022-08-24T00:11:31.579Z,42.30
2022-08-24T00:16:38.685Z,43.90
2022-08-24T00:21:45.791Z,38.10
2022-08-24T00:26:54.270Z,42.40
2022-08-24T00:32:01.703Z,39.00
2022-08-24T00:37:09.133Z,42.90
2022-08-24T00:42:16.236Z,48.30
2022-08-24T00:47:27.215Z,52.90
2022-08-24T00:52:37.029Z,44.90
2022-08-24T00:57:47.925Z,51.50
2022-08-24T01:02:59.782Z,52.90
2022-08-24T01:08:11.404Z,59.10
2022-08-24T01:13:19.241Z,61.30
2022-08-24T01:18:47.402Z,47.40
2022-08-24T01:23:57.451Z,49.80
2022-08-24T01:29:08.900Z,50.30
2022-08-24T01:34:16.691Z,52.70
2022-08-24T01:39:26.565Z,54.40
2022-08-24T01:44:36.601Z,46.80
2022-08-24T01:49:48.141Z,42.00
2022-08-24T01:54:56.204Z,39.00
2022-08-24T02:00:03.160Z,35.70
2022-08-24T02:05:12.821Z,37.00
2022-08-24T02:10:20.346Z,38.40
2022-08-24T02:15:29.584Z,38.90
2022-08-24T02:20:39.082Z,32.20
2022-08-24T02:25:46.619Z,33.40
2022-08-24T02:31:00.006Z,36.90
2022-08-24T02:36:21.843Z,38.60
2022-08-24T02:41:36.164Z,38.50
2022-08-24T02:46:45.118Z,39.40
2022-08-24T02:51:53.761Z,33.20
2022-08-24T02:57:02.375Z,32.50
2022-08-24T03:02:14.494Z,31.10
2022-08-24T03:07:23.448Z,31.40
2022-08-24T03:12:33.062Z,33.70
2022-08-24T03:17:43.025Z,30.50
2022-08-24T03:22:51.383Z,36.60
2022-08-24T03:28:01.625Z,33.30
2022-08-24T03:33:12.114Z,31.20
2022-08-24T03:38:20.574Z,32.40
2022-08-24T03:43:45.959Z,31.60
2022-08-24T03:48:53.621Z,34.60
2022-08-24T03:54:03.646Z,37.10
2022-08-24T03:59:12.382Z,39.20
2022-08-24T04:04:19.631Z,38.00
2022-08-24T04:09:28.127Z,29.90
2022-08-24T04:14:37.939Z,35.60
2022-08-24T04:19:58.336Z,44.10
2022-08-24T04:25:13.069Z,43.50
2022-08-24T04:30:23.079Z,38.20
2022-08-24T04:35:30.339Z,44.90
2022-08-24T04:40:39.637Z,50.90
2022-08-24T04:45:53.084Z,47.40
2022-08-24T04:51:13.825Z,47.40
2022-08-24T04:56:25.120Z,48.30
2022-08-24T05:01:35.544Z,55.30
2022-08-24T05:06:44.494Z,49.10
2022-08-24T05:11:53.983Z,45.30
2022-08-24T05:17:03.613Z,52.20
2022-08-24T05:22:13.554Z,52.60
2022-08-24T05:27:25.209Z,46.80
2022-08-24T05:32:33.545Z,50.70
2022-08-24T05:37:43.966Z,50.10
2022-08-24T05:42:54.301Z,49.30
2022-08-24T05:48:04.361Z,46.30
2022-08-24T05:53:12.641Z,34.90
2022-08-24T05:58:30.578Z,60.80
2022-08-24T06:03:39.361Z,52.90
2022-08-24T06:08:49.940Z,51.70
2022-08-24T06:14:00.554Z,81.30
2022-08-24T06:19:10.158Z,46.80
2022-08-24T06:24:20.506Z,41.00
2022-08-24T06:29:28.785Z,48.70
2022-08-24T06:34:37.431Z,41.00
2022-08-24T06:39:45.491Z,45.30
2022-08-24T06:44:54.180Z,36.20
2022-08-24T06:50:02.966Z,45.50
2022-08-24T06:55:13.207Z,89.60
2022-08-24T07:00:21.425Z,39.60
2022-08-24T07:05:29.113Z,37.00
2022-08-24T07:10:37.684Z,33.00
2022-08-24T07:15:45.904Z,50.40
2022-08-24T07:20:53.779Z,37.10
2022-08-24T07:26:08.667Z,34.50
2022-08-24T07:31:16.070Z,42.20
2022-08-24T07:36:23.964Z,47.60
2022-08-24T07:42:09.065Z,36.70
2022-08-24T07:47:15.098Z,39.50
2022-08-24T07:52:29.169Z,45.70
2022-08-24T07:57:40.225Z,37.10
2022-08-24T08:03:00.567Z,45.10
2022-08-24T08:08:13.275Z,39.90
2022-08-24T08:13:21.512Z,36.90
2022-08-24T08:18:31.260Z,39.80
2022-08-24T08:24:00.213Z,41.20
2022-08-24T08:29:10.645Z,39.30
2022-08-24T08:34:18.079Z,39.30
2022-08-24T08:39:26.278Z,34.10
2022-08-24T08:44:46.832Z,55.10
2022-08-24T08:50:08.177Z,35.30
2022-08-24T08:55:29.284Z,59.90
2022-08-24T09:00:51.968Z,32.90
2022-08-24T09:06:25.868Z,35.50
2022-08-24T09:11:45.239Z,38.90
2022-08-24T09:17:13.291Z,46.30
2022-08-24T09:22:23.860Z,41.10
2022-08-24T09:27:44.066Z,40.20
2022-08-24T09:33:10.391Z,38.30
2022-08-24T09:38:26.522Z,36.90
2022-08-24T09:44:03.447Z,42.10
2022-08-24T09:49:50.528Z,40.40
2022-08-24T09:55:29.099Z,38.70
2022-08-24T10:00:45.251Z,39.80
2022-08-24T10:11:19.982Z,35.10
2022-08-24T10:16:35.576Z,36.90
2022-08-24T10:21:58.722Z,40.40
2022-08-24T10:27:22.757Z,40.50
2022-08-24T10:32:47.549Z,36.10
2022-08-24T10:38:34.915Z,38.70
2022-08-24T10:44:18.270Z,30.20
2022-08-24T10:50:02.895Z,34.90
2022-08-24T10:55:21.282Z,34.40
2022-08-24T11:00:32.875Z,38.10
2022-08-24T11:05:44.258Z,33.90
2022-08-24T11:11:12.648Z,36.00
2022-08-24T11:16:28.180Z,42.20
2022-08-24T11:21:47.004Z,40.70
2022-08-24T11:27:01.346Z,43.80
2022-08-24T11:32:10.137Z,38.60
2022-08-24T11:37:27.056Z,40.60
2022-08-24T11:43:06.060Z,42.40
2022-08-24T11:48:32.098Z,41.70
2022-08-24T11:53:48.612Z,31.90
2022-08-24T11:59:06.271Z,36.10
2022-08-24T12:09:53.784Z,29.30
2022-08-24T12:15:08.968Z,31.20
2022-08-24T12:20:27.635Z,37.30
2022-08-24T12:26:05.848Z,37.50
2022-08-24T12:31:24.207Z,29.00
2022-08-24T12:36:38.769Z,30.80
2022-08-24T12:41:56.253Z,34.50
2022-08-24T12:47:04.058Z,43.50
2022-08-24T12:52:41.967Z,23.20
2022-08-24T12:58:00.762Z,38.90
2022-08-24T13:03:25.243Z,35.20
2022-08-24T13:08:40.618Z,34.10
2022-08-24T13:14:18.382Z,27.50
2022-08-24T13:19:45.603Z,34.00
2022-08-24T13:25:02.777Z,36.50
2022-08-24T13:30:24.228Z,28.70
2022-08-24T13:35:55.805Z,39.70
2022-08-24T13:41:12.591Z,38.50
2022-08-24T13:46:30.023Z,37.80
2022-08-24T13:51:44.485Z,33.20
2022-08-24T13:57:07.663Z,35.90
2022-08-24T14:02:32.646Z,31.60
2022-08-24T14:07:55.542Z,36.50
2022-08-24T14:13:07.863Z,33.60
2022-08-24T14:18:24.725Z,37.60
2022-08-24T14:23:53.479Z,26.90
2022-08-24T14:29:29.434Z,29.60
2022-08-24T14:34:45.951Z,37.30
2022-08-24T14:40:05.564Z,29.80
2022-08-24T14:45:35.472Z,31.30
2022-08-24T14:50:51.737Z,35.40
2022-08-24T14:56:24.377Z,30.00
2022-08-24T15:01:44.878Z,38.60
2022-08-24T15:06:56.317Z,36.20
2022-08-24T15:12:14.650Z,41.80
2022-08-24T15:17:27.553Z,36.40
2022-08-24T15:22:44.397Z,37.40
2022-08-24T15:27:57.512Z,41.50
2022-08-24T15:33:10.523Z,39.50
2022-08-24T15:38:24.271Z,40.80
2022-08-24T15:43:32.953Z,43.40
2022-08-24T15:48:43.991Z,38.00
2022-08-24T15:53:51.799Z,44.30
2022-08-24T15:59:10.360Z,34.70
2022-08-24T16:04:40.898Z,16.30
2022-08-24T16:09:48.294Z,17.70
2022-08-24T16:15:10.055Z,12.30
2022-08-24T16:20:32.943Z,12.70
2022-08-24T16:25:46.922Z,12.80
2022-08-24T16:30:59.583Z,13.70
2022-08-24T16:36:11.584Z,12.40
2022-08-24T16:41:21.579Z,16.30
2022-08-24T16:46:29.621Z,18.60
2022-08-24T16:51:38.913Z,16.30
2022-08-24T16:56:52.540Z,17.90
2022-08-24T17:02:03.047Z,14.10
2022-08-24T17:07:18.010Z,14.90
2022-08-24T17:12:28.297Z,17.00
2022-08-24T17:17:38.351Z,17.50
2022-08-24T17:22:46.089Z,12.90
2022-08-24T17:27:57.472Z,13.00
2022-08-24T17:33:06.271Z,16.90
2022-08-24T17:38:14.535Z,11.50
2022-08-24T17:43:21.751Z,13.60
2022-08-24T17:48:34.067Z,11.90
2022-08-24T17:53:42.276Z,10.90
2022-08-24T17:59:07.981Z,12.60
2022-08-24T18:04:16.446Z,13.30
2022-08-24T18:09:30.518Z,10.50
2022-08-24T18:14:41.420Z,12.70
2022-08-24T18:19:51.123Z,11.70
2022-08-24T18:24:59.206Z,14.60
2022-08-24T18:30:09.675Z,13.50
2022-08-24T18:35:18.507Z,10.50
2022-08-24T18:40:33.164Z,10.50
2022-08-24T18:45:41.825Z,14.40
2022-08-24T18:50:51.028Z,10.60
2022-08-24T18:56:03.128Z,17.70
2022-08-24T19:01:14.751Z,9.20
2022-08-24T19:06:23.622Z,14.60
2022-08-24T19:11:31.546Z,10.70
2022-08-24T19:16:41.512Z,12.60
2022-08-24T19:21:49.361Z,16.50
2022-08-24T19:27:01.821Z,10.20
2022-08-24T19:32:20.195Z,16.70
2022-08-24T19:37:31.834Z,13.40
2022-08-24T19:42:40.339Z,13.90
2022-08-24T19:47:48.303Z,10.70
2022-08-24T19:52:58.081Z,15.00
2022-08-24T19:58:10.709Z,16.80
2022-08-24T20:03:18.240Z,12.80
2022-08-24T20:08:27.074Z,14.70
2022-08-24T20:13:34.735Z,12.60
2022-08-24T20:18:44.306Z,13.10
2022-08-24T20:23:53.749Z,15.70
2022-08-24T20:29:02.351Z,15.20
2022-08-24T20:34:10.855Z,14.10
2022-08-24T20:39:21.172Z,14.90
2022-08-24T20:44:29.080Z,12.70
2022-08-24T20:49:37.886Z,17.30
2022-08-24T20:54:45.832Z,21.00
2022-08-24T20:59:54.107Z,19.20
2022-08-24T21:05:02.768Z,13.70
2022-08-24T21:10:10.824Z,17.10
2022-08-24T21:15:18.528Z,17.80
2022-08-24T21:20:26.573Z,16.40
2022-08-24T21:25:36.121Z,15.10
2022-08-24T21:30:43.468Z,14.80
2022-08-24T21:35:54.002Z,17.50
2022-08-24T21:41:03.205Z,16.50
2022-08-24T21:46:13.954Z,15.50
2022-08-24T21:51:21.403Z,11.90
2022-08-24T21:56:31.634Z,15.30
2022-08-24T22:01:40.359Z,16.60
2022-08-24T22:06:47.573Z,23.30
2022-08-24T22:11:56.121Z,13.10
2022-08-24T22:17:04.976Z,19.30
2022-08-24T22:22:13.266Z,18.50
2022-08-24T22:27:24.956Z,17.50
2022-08-24T22:32:33.675Z,16.80
2022-08-24T22:37:42.520Z,18.70
2022-08-24T22:42:50.460Z,15.40
2022-08-24T22:47:57.712Z,26.40
2022-08-24T22:53:05.897Z,20.10
2022-08-24T22:58:14.441Z,20.40
2022-08-24T23:03:22.712Z,30.60
2022-08-24T23:08:30.650Z,19.80
2022-08-24T23:13:38.601Z,22.50
2022-08-24T23:19:04.010Z,23.00
2022-08-24T23:24:14.066Z,21.50
2022-08-24T23:29:22.768Z,17.50
2022-08-24T23:34:30.257Z,21.10
2022-08-24T23:39:39.317Z,18.60
2022-08-24T23:44:50.069Z,18.10
2022-08-24T23:50:02.906Z,15.30
2022-08-24T23:55:21.268Z,18.50
